Time;durP1;ratioP1;P1;durP2;ratioP2;P2;SDS_P1;SDS_P2;PMS_P1;PMS_P2;Temp;Humidity;BMP_temperature;BMP_pressure;BME280_temperature;BME280_humidity;BME280_pressure;Samples;Min_cycle;Max_cycle;Signal;HPM_P1;HPM_P2
2021/08/01 00:00:33;;;;;;;3.88;1.80;;;;;;;;;;5033502;28;20026;-76
2021/08/01 00:02:59;;;;;;;5.22;1.67;;;;;;;;;;5033877;28;20133;-76
2021/08/01 00:05:25;;;;;;;2.90;1.35;;;;;;;;;;5032850;28;20032;-75
2021/08/01 00:07:51;;;;;;;1.63;1.40;;;;;;;;;;5033892;28;20026;-75
2021/08/01 00:10:17;;;;;;;3.20;1.65;;;;;;;;;;5031407;28;20049;-75
2021/08/01 00:12:43;;;;;;;2.75;1.55;;;;;;;;;;5034485;28;20024;-75
2021/08/01 00:15:11;;;;;;;3.22;1.58;;;;;;;;;;5035608;28;20392;-76
2021/08/01 00:17:37;;;;;;;3.42;1.95;;;;;;;;;;5033290;28;20092;-76
2021/08/01 00:20:03;;;;;;;3.22;1.70;;;;;;;;;;5035638;28;20071;-76
2021/08/01 00:22:29;;;;;;;3.78;1.67;;;;;;;;;;5034333;28;20033;-76
2021/08/01 00:24:56;;;;;;;2.47;1.23;;;;;;;;;;5034691;28;20148;-76
2021/08/01 00:27:23;;;;;;;2.85;1.67;;;;;;;;;;5034615;28;20392;-76
2021/08/01 00:29:49;;;;;;;2.92;1.42;;;;;;;;;;5034718;28;20014;-76
2021/08/01 00:32:15;;;;;;;5.22;1.65;;;;;;;;;;5031327;28;20067;-75
2021/08/01 00:34:41;;;;;;;2.28;1.35;;;;;;;;;;5031793;28;20021;-76
2021/08/01 00:37:07;;;;;;;3.33;1.38;;;;;;;;;;5032629;28;20057;-75
2021/08/01 00:39:33;;;;;;;1.58;1.13;;;;;;;;;;5032202;28;20507;-76
2021/08/01 00:41:59;;;;;;;2.05;1.25;;;;;;;;;;5032134;28;20029;-75
2021/08/01 00:44:25;;;;;;;2.20;1.23;;;;;;;;;;5031604;28;20036;-74
2021/08/01 00:46:53;;;;;;;2.05;0.90;;;;;;;;;;5032546;28;20392;-75
2021/08/01 00:49:20;;;;;;;1.48;1.02;;;;;;;;;;5032239;28;20109;-75
2021/08/01 00:51:46;;;;;;;1.67;0.93;;;;;;;;;;5031867;28;20030;-75
2021/08/01 00:54:12;;;;;;;1.40;1.02;;;;;;;;;;5032221;28;20511;-74
2021/08/01 00:56:38;;;;;;;1.20;0.70;;;;;;;;;;5032148;28;20021;-75
2021/08/01 00:59:04;;;;;;;1.55;0.82;;;;;;;;;;5032703;28;20492;-75
2021/08/01 01:01:33;;;;;;;0.82;0.68;;;;;;;;;;5024095;28;20405;-75
2021/08/01 01:04:00;;;;;;;2.03;0.85;;;;;;;;;;5027343;28;20048;-74
2021/08/01 01:06:26;;;;;;;0.52;0.50;;;;;;;;;;5031182;28;20041;-74
2021/08/01 01:08:55;;;;;;;1.20;0.85;;;;;;;;;;5032397;28;20028;-76
2021/08/01 01:11:23;;;;;;;1.27;0.80;;;;;;;;;;5031012;28;20103;-76
2021/08/01 01:13:52;;;;;;;1.02;0.68;;;;;;;;;;5033366;28;20416;-77
2021/08/01 01:16:18;;;;;;;1.55;0.80;;;;;;;;;;5033093;28;20029;-76
2021/08/01 01:18:48;;;;;;;2.70;0.80;;;;;;;;;;5033791;28;20052;-76
2021/08/01 01:21:18;;;;;;;0.98;0.60;;;;;;;;;;5031508;28;20049;-76
2021/08/01 01:23:56;;;;;;;0.63;0.50;;;;;;;;;;5033100;28;20516;-76
2021/08/01 01:26:25;;;;;;;0.85;0.70;;;;;;;;;;5030972;28;20045;-75
2021/08/01 01:28:56;;;;;;;1.88;0.70;;;;;;;;;;5025744;28;20018;-75
2021/08/01 01:31:46;;;;;;;2.25;0.60;;;;;;;;;;5029336;28;20025;-75
2021/08/01 01:34:31;;;;;;;1.10;0.77;;;;;;;;;;5030597;28;20120;-75
2021/08/01 01:36:59;;;;;;;1.10;0.77;;;;;;;;;;5030354;28;20500;-76
2021/08/01 01:39:27;;;;;;;1.85;0.80;;;;;;;;;;5031098;28;20029;-75
2021/08/01 01:41:53;;;;;;;3.00;0.90;;;;;;;;;;5031017;28;20052;-75
2021/08/01 01:44:19;;;;;;;1.48;0.63;;;;;;;;;;5031312;28;20392;-75
2021/08/01 01:46:46;;;;;;;1.17;0.70;;;;;;;;;;5031884;28;20037;-76
2021/08/01 01:49:13;;;;;;;0.70;0.60;;;;;;;;;;5030983;28;20492;-76
2021/08/01 01:51:39;;;;;;;1.77;0.80;;;;;;;;;;5030731;28;20129;-76
2021/08/01 01:54:07;;;;;;;0.98;0.80;;;;;;;;;;5031462;28;20028;-76
2021/08/01 01:56:34;;;;;;;0.85;0.75;;;;;;;;;;5030770;28;20021;-76
2021/08/01 01:59:01;;;;;;;0.70;0.68;;;;;;;;;;5031392;28;20028;-76
2021/08/01 02:01:27;;;;;;;0.82;0.68;;;;;;;;;;5030234;28;20459;-76
2021/08/01 02:03:53;;;;;;;0.80;0.63;;;;;;;;;;5031199;28;20014;-76
2021/08/01 02:06:19;;;;;;;1.15;0.73;;;;;;;;;;5030218;28;20021;-76
2021/08/01 02:08:57;;;;;;;1.33;0.75;;;;;;;;;;5031153;28;20067;-76
2021/08/01 02:11:24;;;;;;;0.95;0.73;;;;;;;;;;5029916;28;20025;-75
2021/08/01 02:13:59;;;;;;;0.85;0.77;;;;;;;;;;5031562;28;20013;-75
2021/08/01 02:16:28;;;;;;;1.10;0.57;;;;;;;;;;5030910;28;20033;-76
2021/08/01 02:18:57;;;;;;;2.10;1.20;;;;;;;;;;5032282;28;20029;-76
2021/08/01 02:21:23;;;;;;;1.25;0.80;;;;;;;;;;5030310;28;20104;-76
2021/08/01 02:23:51;;;;;;;1.15;0.90;;;;;;;;;;5031407;28;20048;-75
2021/08/01 02:26:18;;;;;;;0.75;0.52;;;;;;;;;;5031267;28;20038;-75
2021/08/01 02:28:44;;;;;;;1.20;0.95;;;;;;;;;;5031516;28;20018;-75
2021/08/01 02:31:11;;;;;;;1.95;0.98;;;;;;;;;;5031294;28;20024;-75
2021/08/01 02:33:38;;;;;;;2.05;0.90;;;;;;;;;;5032385;28;20021;-75
2021/08/01 02:36:06;;;;;;;1.27;0.75;;;;;;;;;;5031442;28;20044;-75
2021/08/01 02:38:32;;;;;;;1.05;0.88;;;;;;;;;;5030169;28;20030;-76
2021/08/01 02:41:01;;;;;;;1.17;0.80;;;;;;;;;;5030591;28;20366;-76
2021/08/01 02:43:28;;;;;;;1.55;0.85;;;;;;;;;;5029804;28;20029;-75
2021/08/01 02:45:54;;;;;;;2.00;1.00;;;;;;;;;;5030916;28;20029;-75
2021/08/01 02:48:22;;;;;;;1.05;0.93;;;;;;;;;;5030001;28;20530;-76
2021/08/01 02:50:53;;;;;;;0.85;0.85;;;;;;;;;;5029127;28;20488;-76
2021/08/01 02:53:19;;;;;;;1.55;0.90;;;;;;;;;;5029811;28;20025;-75
2021/08/01 02:55:47;;;;;;;1.05;0.93;;;;;;;;;;5030916;28;20053;-75
2021/08/01 02:58:13;;;;;;;2.20;1.17;;;;;;;;;;5030363;28;20504;-76
2021/08/01 03:00:43;;;;;;;1.65;1.10;;;;;;;;;;5030687;28;20075;-75
2021/08/01 03:03:10;;;;;;;2.28;1.08;;;;;;;;;;5030680;28;20022;-75
2021/08/01 03:05:37;;;;;;;1.58;1.20;;;;;;;;;;5031021;28;20081;-76
2021/08/01 03:08:06;;;;;;;0.85;0.80;;;;;;;;;;5030887;28;20476;-75
2021/08/01 03:10:33;;;;;;;1.90;0.90;;;;;;;;;;5029193;28;20021;-75
2021/08/01 03:12:59;;;;;;;1.35;1.20;;;;;;;;;;5030987;28;20028;-75
2021/08/01 03:15:25;;;;;;;1.77;1.10;;;;;;;;;;5029888;28;20289;-75
2021/08/01 03:17:51;;;;;;;1.58;1.20;;;;;;;;;;5030415;28;20057;-75
2021/08/01 03:20:17;;;;;;;2.20;1.30;;;;;;;;;;5030482;28;20056;-76
2021/08/01 03:22:43;;;;;;;3.63;1.45;;;;;;;;;;5030018;28;20442;-75
2021/08/01 03:25:09;;;;;;;1.55;1.25;;;;;;;;;;5033470;28;20045;-75
2021/08/01 03:27:35;;;;;;;2.25;1.30;;;;;;;;;;5033844;28;20028;-75
2021/08/01 03:30:01;;;;;;;2.63;1.30;;;;;;;;;;5034375;28;20109;-75
2021/08/01 03:32:27;;;;;;;3.20;1.42;;;;;;;;;;5033045;28;20029;-75
2021/08/01 03:34:54;;;;;;;3.85;1.10;;;;;;;;;;5034285;28;20030;-75
2021/08/01 03:37:20;;;;;;;2.13;1.40;;;;;;;;;;5033316;28;20026;-75
2021/08/01 03:39:46;;;;;;;1.60;1.08;;;;;;;;;;5032883;28;20052;-76
2021/08/01 03:42:12;;;;;;;1.40;0.90;;;;;;;;;;5033661;28;20036;-76
2021/08/01 03:44:38;;;;;;;0.98;0.90;;;;;;;;;;5032785;28;20107;-75
2021/08/01 03:47:04;;;;;;;1.60;1.23;;;;;;;;;;5034453;28;20419;-76
2021/08/01 03:49:30;;;;;;;1.98;0.95;;;;;;;;;;5032949;28;20029;-76
2021/08/01 03:51:56;;;;;;;1.80;1.20;;;;;;;;;;5033224;28;20140;-75
2021/08/01 03:54:22;;;;;;;1.23;1.10;;;;;;;;;;5031729;28;20034;-75
2021/08/01 03:56:48;;;;;;;2.63;1.15;;;;;;;;;;5034319;28;20480;-76
2021/08/01 03:59:14;;;;;;;1.60;1.20;;;;;;;;;;5031651;28;20026;-76
2021/08/01 04:01:41;;;;;;;1.70;1.00;;;;;;;;;;5033302;28;20447;-75
2021/08/01 04:04:07;;;;;;;1.80;1.00;;;;;;;;;;5033337;28;20026;-75
2021/08/01 04:06:33;;;;;;;1.42;0.80;;;;;;;;;;5032909;28;20029;-75
2021/08/01 04:09:00;;;;;;;2.83;1.00;;;;;;;;;;5033711;28;20500;-75
2021/08/01 04:11:26;;;;;;;1.25;1.02;;;;;;;;;;5032277;28;20026;-76
2021/08/01 04:13:52;;;;;;;2.35;1.00;;;;;;;;;;5033125;28;20025;-75
2021/08/01 04:16:18;;;;;;;1.58;0.90;;;;;;;;;;5032562;28;20033;-75
2021/08/01 04:18:44;;;;;;;1.00;0.90;;;;;;;;;;5033121;28;20060;-75
2021/08/01 04:21:11;;;;;;;1.00;0.68;;;;;;;;;;5031182;28;20017;-75
2021/08/01 04:23:38;;;;;;;1.38;0.80;;;;;;;;;;5032862;28;20068;-74
2021/08/01 04:26:04;;;;;;;1.08;0.90;;;;;;;;;;5031752;28;20072;-74
2021/08/01 04:28:31;;;;;;;2.20;1.00;;;;;;;;;;5030878;28;20116;-75
2021/08/01 04:30:57;;;;;;;1.38;0.80;;;;;;;;;;5032918;28;20084;-74
2021/08/01 04:33:23;;;;;;;1.17;1.00;;;;;;;;;;5032202;28;20444;-75
2021/08/01 04:35:49;;;;;;;1.10;0.98;;;;;;;;;;5032336;28;20395;-74
2021/08/01 04:38:15;;;;;;;1.17;0.80;;;;;;;;;;5032426;28;20026;-75
2021/08/01 04:40:41;;;;;;;1.90;1.02;;;;;;;;;;5032637;28;20520;-75
2021/08/01 04:43:07;;;;;;;3.25;1.40;;;;;;;;;;5032660;28;20051;-75
2021/08/01 04:45:34;;;;;;;1.08;0.70;;;;;;;;;;5031759;28;20083;-75
2021/08/01 04:48:00;;;;;;;1.20;1.00;;;;;;;;;;5032829;28;20024;-75
2021/08/01 04:50:26;;;;;;;1.52;1.00;;;;;;;;;;5031591;28;20060;-75
2021/08/01 04:52:52;;;;;;;1.70;1.00;;;;;;;;;;5033119;28;20447;-75
2021/08/01 04:55:19;;;;;;;1.85;0.85;;;;;;;;;;5030328;28;20504;-75
2021/08/01 04:57:45;;;;;;;1.63;1.02;;;;;;;;;;5032595;28;20025;-75
2021/08/01 05:00:12;;;;;;;3.22;1.33;;;;;;;;;;5031765;28;20032;-74
2021/08/01 05:02:38;;;;;;;1.85;1.08;;;;;;;;;;5032120;28;20021;-74
2021/08/01 05:05:04;;;;;;;2.40;1.45;;;;;;;;;;5030838;28;20074;-74
2021/08/01 05:07:31;;;;;;;2.22;1.00;;;;;;;;;;5031832;28;20025;-75
2021/08/01 05:09:57;;;;;;;1.08;0.90;;;;;;;;;;5032341;28;20120;-75
2021/08/01 05:12:24;;;;;;;2.25;1.00;;;;;;;;;;5029802;28;20223;-75
2021/08/01 05:14:50;;;;;;;2.28;1.17;;;;;;;;;;5031946;28;20025;-75
2021/08/01 05:17:16;;;;;;;1.17;1.05;;;;;;;;;;5031363;28;20029;-75
2021/08/01 05:19:42;;;;;;;3.50;1.20;;;;;;;;;;5032002;28;20033;-75
2021/08/01 05:22:09;;;;;;;1.35;1.15;;;;;;;;;;5031552;28;20025;-75
2021/08/01 05:24:38;;;;;;;2.17;1.15;;;;;;;;;;5030852;28;20503;-75
2021/08/01 05:27:04;;;;;;;1.30;1.20;;;;;;;;;;5031662;28;20022;-75
2021/08/01 05:29:30;;;;;;;1.23;1.10;;;;;;;;;;5031197;28;20525;-75
2021/08/01 05:31:57;;;;;;;3.47;1.45;;;;;;;;;;5031340;28;20040;-74
2021/08/01 05:34:23;;;;;;;2.08;1.13;;;;;;;;;;5029616;28;20073;-75
2021/08/01 05:36:49;;;;;;;2.30;1.27;;;;;;;;;;5031676;28;20022;-75
2021/08/01 05:39:16;;;;;;;2.35;1.05;;;;;;;;;;5030971;28;20024;-75
2021/08/01 05:41:42;;;;;;;2.45;1.27;;;;;;;;;;5031083;28;20075;-74
2021/08/01 05:44:08;;;;;;;1.90;1.15;;;;;;;;;;5032014;28;20032;-75
2021/08/01 05:46:34;;;;;;;1.30;1.00;;;;;;;;;;5029788;28;20373;-75
2021/08/01 05:49:00;;;;;;;1.88;1.17;;;;;;;;;;5031707;28;20059;-75
2021/08/01 05:51:26;;;;;;;2.47;1.17;;;;;;;;;;5029672;28;20029;-75
2021/08/01 05:53:52;;;;;;;2.75;1.42;;;;;;;;;;5031449;28;20022;-75
2021/08/01 05:56:18;;;;;;;2.45;1.10;;;;;;;;;;5030410;28;20404;-75
2021/08/01 05:58:44;;;;;;;1.83;1.25;;;;;;;;;;5031723;28;20515;-75
2021/08/01 06:01:12;;;;;;;1.77;1.33;;;;;;;;;;5030773;28;20029;-75
2021/08/01 06:03:38;;;;;;;1.50;1.10;;;;;;;;;;5029785;28;20112;-75
2021/08/01 06:06:07;;;;;;;1.60;1.10;;;;;;;;;;5031166;28;20151;-75
2021/08/01 06:08:33;;;;;;;1.08;0.98;;;;;;;;;;5030415;28;20051;-75
2021/08/01 06:10:59;;;;;;;1.30;1.20;;;;;;;;;;5030994;28;20017;-75
2021/08/01 06:13:26;;;;;;;1.90;1.17;;;;;;;;;;5030394;28;20033;-75
2021/08/01 06:15:52;;;;;;;1.67;1.02;;;;;;;;;;5030879;28;20032;-75
2021/08/01 06:18:18;;;;;;;1.50;1.30;;;;;;;;;;5030202;28;20104;-75
2021/08/01 06:20:44;;;;;;;2.90;1.27;;;;;;;;;;5031043;28;20065;-75
2021/08/01 06:23:10;;;;;;;1.70;1.13;;;;;;;;;;5030930;28;20036;-76
2021/08/01 06:25:38;;;;;;;2.78;1.15;;;;;;;;;;5031255;28;20032;-76
2021/08/01 06:28:04;;;;;;;4.63;1.30;;;;;;;;;;5040840;28;20013;-76
2021/08/01 06:30:30;;;;;;;2.50;1.38;;;;;;;;;;5039621;28;20500;-76
2021/08/01 06:32:57;;;;;;;1.65;1.05;;;;;;;;;;5041445;28;20021;-76
2021/08/01 06:35:23;;;;;;;4.53;1.30;;;;;;;;;;5041643;28;20037;-76
2021/08/01 06:37:49;;;;;;;2.33;1.20;;;;;;;;;;5032727;28;20400;-76
2021/08/01 06:40:18;;;;;;;1.77;1.17;;;;;;;;;;5029526;28;20022;-76
2021/08/01 06:42:45;;;;;;;1.55;1.25;;;;;;;;;;5032151;28;20607;-76
2021/08/01 06:45:11;;;;;;;2.15;1.13;;;;;;;;;;5036439;28;20506;-76
2021/08/01 06:47:37;;;;;;;2.67;1.42;;;;;;;;;;5041219;28;20024;-76
2021/08/01 06:50:04;;;;;;;2.85;1.08;;;;;;;;;;5040206;28;20021;-76
2021/08/01 06:52:30;;;;;;;2.53;1.15;;;;;;;;;;5036413;28;20053;-76
2021/08/01 06:54:56;;;;;;;1.92;0.95;;;;;;;;;;5031680;28;20029;-76
2021/08/01 06:57:22;;;;;;;1.48;1.00;;;;;;;;;;5031078;28;20029;-76
2021/08/01 06:59:48;;;;;;;2.05;1.00;;;;;;;;;;5044391;28;20022;-76
2021/08/01 07:02:14;;;;;;;1.80;0.90;;;;;;;;;;5041049;28;20026;-77
2021/08/01 07:04:40;;;;;;;1.00;0.80;;;;;;;;;;5039213;28;20575;-77
2021/08/01 07:07:06;;;;;;;1.50;0.80;;;;;;;;;;5038222;28;20018;-76
2021/08/01 07:09:40;;;;;;;2.28;1.10;;;;;;;;;;5034359;28;20111;-76
2021/08/01 07:12:06;;;;;;;1.70;1.02;;;;;;;;;;5035178;28;20013;-76
2021/08/01 07:14:32;;;;;;;1.50;1.10;;;;;;;;;;5039828;28;20037;-76
2021/08/01 07:17:00;;;;;;;2.85;1.02;;;;;;;;;;5036915;28;20014;-77
2021/08/01 07:19:26;;;;;;;2.83;1.08;;;;;;;;;;5037332;28;20034;-76
2021/08/01 07:21:52;;;;;;;2.67;0.90;;;;;;;;;;5040683;28;20029;-76
2021/08/01 07:24:18;;;;;;;1.60;0.82;;;;;;;;;;5041860;28;20047;-76
2021/08/01 07:26:47;;;;;;;1.40;0.75;;;;;;;;;;5040096;28;20484;-77
2021/08/01 07:29:13;;;;;;;1.88;0.88;;;;;;;;;;5038430;28;20120;-77
2021/08/01 07:31:39;;;;;;;1.25;0.85;;;;;;;;;;5035560;28;20022;-77
2021/08/01 07:34:05;;;;;;;3.03;0.88;;;;;;;;;;5036454;28;20071;-77
2021/08/01 07:36:31;;;;;;;1.95;0.98;;;;;;;;;;5034913;28;20340;-76
2021/08/01 07:38:57;;;;;;;2.13;1.10;;;;;;;;;;5040386;28;20064;-76
2021/08/01 07:41:23;;;;;;;3.30;0.88;;;;;;;;;;5042210;28;20037;-76
2021/08/01 07:43:51;;;;;;;1.80;0.90;;;;;;;;;;5037879;28;20025;-78
2021/08/01 07:46:18;;;;;;;2.40;0.98;;;;;;;;;;5036452;28;20388;-76
2021/08/01 07:48:44;;;;;;;2.53;0.90;;;;;;;;;;5040608;28;20017;-76
2021/08/01 07:51:10;;;;;;;4.63;1.00;;;;;;;;;;5040107;28;20072;-76
2021/08/01 07:53:36;;;;;;;2.72;1.20;;;;;;;;;;5036485;28;20022;-76
2021/08/01 07:56:02;;;;;;;4.45;1.27;;;;;;;;;;5034868;28;20112;-77
2021/08/01 07:58:30;;;;;;;3.13;0.90;;;;;;;;;;5033919;28;20025;-76
2021/08/01 08:00:56;;;;;;;2.85;1.02;;;;;;;;;;5036181;28;20066;-76
2021/08/01 08:03:24;;;;;;;2.78;1.20;;;;;;;;;;5034377;28;20049;-77
2021/08/01 08:05:51;;;;;;;3.00;1.00;;;;;;;;;;5037386;28;20603;-76
2021/08/01 08:08:17;;;;;;;2.75;1.00;;;;;;;;;;5033693;28;20022;-76
2021/08/01 08:10:44;;;;;;;1.33;0.80;;;;;;;;;;5033272;28;20024;-77
2021/08/01 08:13:10;;;;;;;2.38;1.02;;;;;;;;;;5034227;28;20028;-75
2021/08/01 08:15:37;;;;;;;3.80;1.30;;;;;;;;;;5033781;28;20104;-74
2021/08/01 08:18:04;;;;;;;3.75;1.10;;;;;;;;;;5032195;28;20095;-74
2021/08/01 08:20:31;;;;;;;2.47;0.80;;;;;;;;;;5031743;28;20056;-74
2021/08/01 08:22:57;;;;;;;4.78;0.90;;;;;;;;;;5033316;28;20446;-76
2021/08/01 08:25:23;;;;;;;2.65;1.00;;;;;;;;;;5031924;28;20084;-74
2021/08/01 08:27:49;;;;;;;2.05;0.80;;;;;;;;;;5033738;28;20029;-74
2021/08/01 08:30:15;;;;;;;2.75;0.90;;;;;;;;;;5032817;28;20013;-74
2021/08/01 08:32:41;;;;;;;2.08;1.27;;;;;;;;;;5033252;28;20445;-75
2021/08/01 08:35:08;;;;;;;2.65;1.02;;;;;;;;;;5033343;28;20396;-74
2021/08/01 08:37:42;;;;;;;2.63;1.10;;;;;;;;;;5032355;28;20495;-74
2021/08/01 08:40:08;;;;;;;1.65;0.85;;;;;;;;;;5032856;28;20021;-74
2021/08/01 08:42:37;;;;;;;2.30;0.90;;;;;;;;;;5032379;28;20485;-74
2021/08/01 08:45:06;;;;;;;3.67;0.93;;;;;;;;;;5031474;28;20026;-74
2021/08/01 08:47:36;;;;;;;2.38;1.00;;;;;;;;;;5032359;28;20421;-74
2021/08/01 08:50:06;;;;;;;2.40;1.13;;;;;;;;;;5033365;28;20104;-74
2021/08/01 08:52:32;;;;;;;1.77;0.88;;;;;;;;;;5031408;28;20495;-75
2021/08/01 08:55:01;;;;;;;1.85;0.93;;;;;;;;;;5032810;28;20033;-75
2021/08/01 08:57:39;;;;;;;4.85;1.10;;;;;;;;;;5031972;28;20033;-74
2021/08/01 09:00:07;;;;;;;2.00;0.90;;;;;;;;;;5031447;28;20025;-73
2021/08/01 09:02:36;;;;;;;2.10;0.85;;;;;;;;;;5032069;28;20028;-74
2021/08/01 09:05:04;;;;;;;3.13;1.10;;;;;;;;;;5032842;28;20484;-74
2021/08/01 09:07:30;;;;;;;1.50;0.90;;;;;;;;;;5032189;28;20025;-74
2021/08/01 09:09:56;;;;;;;1.52;0.73;;;;;;;;;;5032771;28;20108;-74
2021/08/01 09:12:22;;;;;;;1.73;1.00;;;;;;;;;;5031613;28;20029;-74
2021/08/01 09:14:48;;;;;;;1.60;0.70;;;;;;;;;;5032560;28;20020;-74
2021/08/01 09:17:33;;;;;;;4.00;1.55;;;;;;;;;;5032562;28;20048;-73
2021/08/01 09:20:11;;;;;;;2.28;1.30;;;;;;;;;;5033589;28;20017;-74
2021/08/01 09:22:37;;;;;;;3.13;0.80;;;;;;;;;;5033844;28;20021;-74
2021/08/01 09:25:15;;;;;;;2.70;1.13;;;;;;;;;;5033678;28;20076;-74
2021/08/01 09:27:41;;;;;;;1.95;1.13;;;;;;;;;;5026474;28;20397;-74
2021/08/01 09:30:07;;;;;;;4.80;1.30;;;;;;;;;;5033812;28;20017;-74
2021/08/01 09:32:45;;;;;;;1.83;1.00;;;;;;;;;;5033452;28;20396;-75
2021/08/01 09:35:21;;;;;;;3.58;0.98;;;;;;;;;;5032208;28;20025;-74
2021/08/01 09:37:59;;;;;;;2.33;0.80;;;;;;;;;;5032208;28;20032;-74
2021/08/01 09:40:29;;;;;;;4.00;1.67;;;;;;;;;;5031871;28;20026;-74
2021/08/01 09:43:05;;;;;;;2.88;0.98;;;;;;;;;;5032203;28;20040;-74
2021/08/01 09:45:31;;;;;;;2.85;1.02;;;;;;;;;;5031116;28;20358;-73
2021/08/01 09:48:13;;;;;;;4.97;1.35;;;;;;;;;;5032016;28;20022;-75
2021/08/01 09:50:57;;;;;;;1.40;0.80;;;;;;;;;;5031263;28;20014;-74
2021/08/01 09:53:23;;;;;;;2.00;0.80;;;;;;;;;;5029809;28;20112;-74
2021/08/01 09:56:09;;;;;;;3.78;1.13;;;;;;;;;;5031546;28;20439;-74
2021/08/01 09:58:38;;;;;;;1.85;0.93;;;;;;;;;;5031024;28;20029;-74
2021/08/01 10:01:05;;;;;;;2.17;0.80;;;;;;;;;;5031100;28;20021;-74
2021/08/01 10:03:37;;;;;;;1.98;0.98;;;;;;;;;;5031363;28;20034;-74
2021/08/01 10:06:10;;;;;;;3.33;1.00;;;;;;;;;;5031953;28;20017;-74
2021/08/01 10:08:41;;;;;;;3.47;0.90;;;;;;;;;;5030407;28;20504;-74
2021/08/01 10:11:25;;;;;;;2.42;1.17;;;;;;;;;;5030601;28;20017;-75
2021/08/01 10:13:55;;;;;;;3.05;1.00;;;;;;;;;;5031380;28;20378;-76
2021/08/01 10:16:22;;;;;;;1.58;0.70;;;;;;;;;;5029896;28;20401;-75
2021/08/01 10:18:50;;;;;;;2.20;0.95;;;;;;;;;;5031161;28;20116;-74
2021/08/01 10:21:20;;;;;;;0.77;0.70;;;;;;;;;;5030200;28;20026;-74
2021/08/01 10:23:47;;;;;;;2.63;0.85;;;;;;;;;;5031105;28;20436;-74
2021/08/01 10:26:15;;;;;;;1.95;1.08;;;;;;;;;;5030519;28;20029;-74
2021/08/01 10:28:42;;;;;;;2.20;0.80;;;;;;;;;;5031162;28;20392;-74
2021/08/01 10:31:10;;;;;;;2.22;0.90;;;;;;;;;;5029106;28;20104;-74
2021/08/01 10:33:46;;;;;;;3.53;1.20;;;;;;;;;;5030426;28;20021;-74
2021/08/01 10:36:12;;;;;;;4.05;0.93;;;;;;;;;;5028868;28;20117;-74
2021/08/01 10:38:38;;;;;;;3.40;0.95;;;;;;;;;;5030794;28;20032;-74
2021/08/01 10:41:06;;;;;;;1.25;0.70;;;;;;;;;;5030396;28;20017;-74
2021/08/01 10:43:35;;;;;;;2.83;1.00;;;;;;;;;;5030099;28;20528;-74
2021/08/01 10:46:01;;;;;;;3.30;1.10;;;;;;;;;;5029361;28;20040;-74
2021/08/01 10:48:28;;;;;;;2.75;0.82;;;;;;;;;;5030107;28;20558;-74
2021/08/01 10:50:55;;;;;;;2.75;0.80;;;;;;;;;;5030524;28;20056;-74
2021/08/01 10:53:22;;;;;;;1.83;0.85;;;;;;;;;;5029777;28;20029;-74
2021/08/01 10:55:51;;;;;;;1.83;0.90;;;;;;;;;;5031255;28;20026;-74
2021/08/01 10:58:18;;;;;;;3.75;1.08;;;;;;;;;;5028905;28;20030;-74
2021/08/01 11:00:56;;;;;;;3.38;0.85;;;;;;;;;;5030574;28;20033;-74
2021/08/01 11:03:23;;;;;;;1.50;1.00;;;;;;;;;;5029680;28;20032;-74
2021/08/01 11:05:49;;;;;;;1.95;0.70;;;;;;;;;;5031076;28;20388;-75
2021/08/01 11:08:15;;;;;;;2.42;1.00;;;;;;;;;;5029873;28;20021;-75
2021/08/01 11:10:43;;;;;;;1.65;0.88;;;;;;;;;;5029542;28;20018;-74
2021/08/01 11:13:45;;;;;;;2.13;0.90;;;;;;;;;;5030684;28;20024;-74
2021/08/01 11:16:12;;;;;;;1.67;0.80;;;;;;;;;;5025336;28;20075;-74
2021/08/01 11:18:39;;;;;;;1.77;0.75;;;;;;;;;;5022794;28;20041;-74
2021/08/01 11:21:06;;;;;;;2.20;0.90;;;;;;;;;;5030250;28;20021;-74
2021/08/01 11:23:55;;;;;;;3.83;1.02;;;;;;;;;;5028299;28;20049;-74
2021/08/01 11:26:21;;;;;;;2.00;0.75;;;;;;;;;;5028677;28;20049;-74
2021/08/01 11:29:04;;;;;;;4.80;1.00;;;;;;;;;;5031084;28;20096;-74
2021/08/01 11:31:30;;;;;;;1.80;0.73;;;;;;;;;;5030130;28;20032;-74
2021/08/01 11:33:56;;;;;;;2.45;0.95;;;;;;;;;;5031261;28;20017;-74
2021/08/01 11:36:23;;;;;;;1.30;0.80;;;;;;;;;;5029893;28;20029;-75
2021/08/01 11:38:52;;;;;;;1.98;0.80;;;;;;;;;;5029568;28;20049;-74
2021/08/01 11:41:33;;;;;;;3.53;1.15;;;;;;;;;;5029256;28;20036;-74
2021/08/01 11:44:05;;;;;;;2.25;1.10;;;;;;;;;;5030503;28;20021;-75
2021/08/01 11:46:54;;;;;;;3.60;1.20;;;;;;;;;;5033590;28;20452;-75
2021/08/01 11:49:27;;;;;;;2.90;1.02;;;;;;;;;;5033743;28;20030;-74
2021/08/01 11:51:58;;;;;;;3.88;1.00;;;;;;;;;;5032085;28;20113;-74
2021/08/01 11:54:30;;;;;;;1.77;0.90;;;;;;;;;;5032089;28;20025;-75
2021/08/01 11:57:04;;;;;;;3.53;0.80;;;;;;;;;;5033158;28;20536;-74
2021/08/01 11:59:30;;;;;;;2.50;1.00;;;;;;;;;;5033978;28;20029;-74
2021/08/01 12:01:57;;;;;;;1.48;1.10;;;;;;;;;;5033564;28;20030;-74
2021/08/01 12:04:23;;;;;;;2.92;1.33;;;;;;;;;;5032925;28;20034;-74
2021/08/01 12:06:52;;;;;;;3.60;2.40;;;;;;;;;;5033480;28;20026;-74
2021/08/01 12:09:20;;;;;;;2.55;1.80;;;;;;;;;;5033094;28;20021;-75
2021/08/01 12:11:47;;;;;;;2.55;1.70;;;;;;;;;;5032763;28;20025;-74
2021/08/01 12:14:14;;;;;;;4.72;2.80;;;;;;;;;;5032945;28;20025;-74
2021/08/01 12:16:59;;;;;;;5.43;3.58;;;;;;;;;;5032174;28;20500;-74
2021/08/01 12:19:29;;;;;;;3.95;3.40;;;;;;;;;;5032946;28;20156;-74
2021/08/01 12:21:59;;;;;;;10.35;6.88;;;;;;;;;;5033045;28;20052;-74
2021/08/01 12:24:44;;;;;;;6.10;5.47;;;;;;;;;;5032420;28;20159;-75
2021/08/01 12:27:11;;;;;;;5.95;5.35;;;;;;;;;;5033081;28;20055;-74
2021/08/01 12:29:37;;;;;;;6.55;5.55;;;;;;;;;;5033061;28;20511;-75
2021/08/01 12:32:16;;;;;;;6.78;5.22;;;;;;;;;;5032564;28;20071;-75
2021/08/01 12:34:42;;;;;;;3.85;2.97;;;;;;;;;;5026191;28;20033;-74
2021/08/01 12:37:09;;;;;;;4.88;3.88;;;;;;;;;;5031459;28;20063;-74
2021/08/01 12:39:43;;;;;;;4.78;3.55;;;;;;;;;;5032254;28;20033;-73
2021/08/01 12:42:16;;;;;;;4.93;3.42;;;;;;;;;;5034283;28;20029;-75
2021/08/01 12:44:51;;;;;;;3.50;3.17;;;;;;;;;;5037370;28;20021;-75
2021/08/01 12:47:17;;;;;;;4.00;3.45;;;;;;;;;;5030946;28;20046;-75
2021/08/01 12:49:44;;;;;;;4.15;3.35;;;;;;;;;;5032660;28;20030;-76
2021/08/01 12:52:10;;;;;;;4.63;3.15;;;;;;;;;;5031017;28;20021;-75
2021/08/01 12:54:37;;;;;;;4.38;3.33;;;;;;;;;;5032870;28;20502;-76
2021/08/01 12:57:12;;;;;;;2.20;1.95;;;;;;;;;;5032481;28;20404;-75
2021/08/01 12:59:38;;;;;;;2.53;2.22;;;;;;;;;;5040863;28;20025;-75
2021/08/01 13:02:05;;;;;;;2.95;1.92;;;;;;;;;;5039121;28;20486;-75
2021/08/01 13:04:41;;;;;;;5.05;1.30;;;;;;;;;;5033680;28;20761;-75
2021/08/01 13:07:07;;;;;;;2.78;1.83;;;;;;;;;;5039852;28;20081;-75
2021/08/01 13:09:33;;;;;;;1.98;1.40;;;;;;;;;;5038274;28;20041;-75
2021/08/01 13:12:08;;;;;;;2.80;1.30;;;;;;;;;;5035648;28;20040;-75
2021/08/01 13:14:34;;;;;;;2.83;1.48;;;;;;;;;;5034044;28;20105;-75
2021/08/01 13:17:00;;;;;;;2.92;1.50;;;;;;;;;;5034419;28;20075;-75
2021/08/01 13:19:28;;;;;;;1.30;1.20;;;;;;;;;;5032567;28;20036;-75
2021/08/01 13:22:15;;;;;;;1.52;1.17;;;;;;;;;;5035974;28;20028;-75
2021/08/01 13:24:42;;;;;;;2.55;1.33;;;;;;;;;;5033504;28;20120;-75
2021/08/01 13:27:10;;;;;;;1.75;1.48;;;;;;;;;;5031787;28;20107;-75
2021/08/01 13:29:36;;;;;;;2.17;1.05;;;;;;;;;;5034983;28;20429;-75
2021/08/01 13:32:09;;;;;;;1.92;1.13;;;;;;;;;;5034362;28;20431;-76
2021/08/01 13:34:36;;;;;;;0.98;0.90;;;;;;;;;;5032058;28;20075;-75
2021/08/01 13:37:02;;;;;;;2.10;1.10;;;;;;;;;;5035181;28;20516;-75
2021/08/01 13:39:48;;;;;;;2.42;0.80;;;;;;;;;;5033238;28;20057;-75
2021/08/01 13:42:15;;;;;;;1.65;0.75;;;;;;;;;;5031777;28;20167;-76
2021/08/01 13:44:44;;;;;;;4.75;0.75;;;;;;;;;;5031945;28;20479;-77
2021/08/01 13:47:15;;;;;;;2.40;0.65;;;;;;;;;;5031689;28;20029;-77
2021/08/01 13:49:42;;;;;;;0.60;0.50;;;;;;;;;;5030626;28;20097;-76
2021/08/01 13:52:12;;;;;;;2.00;0.70;;;;;;;;;;5030994;28;20033;-76
2021/08/01 13:54:39;;;;;;;1.92;0.70;;;;;;;;;;5031636;28;20021;-76
2021/08/01 13:57:06;;;;;;;1.55;0.82;;;;;;;;;;5033343;28;20031;-76
2021/08/01 13:59:32;;;;;;;2.25;0.50;;;;;;;;;;5031146;28;20172;-75
2021/08/01 14:01:58;;;;;;;6.25;0.95;;;;;;;;;;5029932;28;20022;-76
2021/08/01 14:04:24;;;;;;;1.25;0.60;;;;;;;;;;5033434;28;20434;-76
2021/08/01 14:06:50;;;;;;;1.67;0.80;;;;;;;;;;5032063;28;20048;-75
2021/08/01 14:09:16;;;;;;;0.90;0.68;;;;;;;;;;5033021;28;20018;-75
2021/08/01 14:11:42;;;;;;;0.85;0.60;;;;;;;;;;5034528;28;20104;-75
2021/08/01 14:14:08;;;;;;;1.20;0.60;;;;;;;;;;5033379;28;20495;-76
2021/08/01 14:16:34;;;;;;;1.13;0.60;;;;;;;;;;5031501;28;20268;-75
2021/08/01 14:19:00;;;;;;;1.83;0.73;;;;;;;;;;5032290;28;20365;-77
2021/08/01 14:21:26;;;;;;;2.03;0.60;;;;;;;;;;5030246;28;20496;-77
2021/08/01 14:23:52;;;;;;;1.48;0.70;;;;;;;;;;5030872;28;20045;-75
2021/08/01 14:26:19;;;;;;;1.58;0.80;;;;;;;;;;5031852;28;20053;-75
2021/08/01 14:28:48;;;;;;;1.05;0.70;;;;;;;;;;5032029;28;20424;-75
2021/08/01 14:31:18;;;;;;;1.67;0.90;;;;;;;;;;5030828;28;20022;-76
2021/08/01 14:33:44;;;;;;;1.88;0.75;;;;;;;;;;5031632;28;20126;-76
2021/08/01 14:36:10;;;;;;;1.67;0.63;;;;;;;;;;5032205;28;20455;-75
2021/08/01 14:38:37;;;;;;;1.67;0.90;;;;;;;;;;5031818;28;20025;-75
2021/08/01 14:41:04;;;;;;;0.93;0.50;;;;;;;;;;5030291;28;20030;-75
2021/08/01 14:43:30;;;;;;;1.15;0.65;;;;;;;;;;5028486;28;20026;-75
2021/08/01 14:45:57;;;;;;;1.30;0.60;;;;;;;;;;5031194;28;20052;-75
2021/08/01 14:48:26;;;;;;;3.22;0.73;;;;;;;;;;5030076;28;20036;-75